EFW73V EGKK-LIBD
Flight info
| Callsign | EFW73V |
|---|---|
| Flight time | N/A |
| Altitude | 33000 |
| Route | ODVIK Y311 DVR UL9 KONAN DCT KOK DCT RITAX DCT KRH DCT UTABA DCT MOMUK DCT UMVEG DCT VEKEN DCT ARNOS DCT RILIM DCT AIOSA DCT BANAV |
| Aircraft | A321/M-SDE3FGHIRWY/LB1 |
Departure
| Time | N/A |
|---|---|
| Airport | London Gatwick Airport (EGKK) |
Arrival
| Time | 2026-05-09 13:12 |
|---|---|
| Airport | Bari Karol Wojtyła International Airport (LIBD) |
| Time | Latitude | Longitude | Altitude | Speed | Heading |
|---|---|---|---|---|---|
| 2026-05-09 12:57 | 42.01762 | 17.19597 | 17619 ft | 365 kts | 159° |
| 2026-05-09 12:57 | 41.99447 | 17.20950 | 17212 ft | 360 kts | 159° |
| 2026-05-09 12:57 | 41.97140 | 17.22197 | 16819 ft | 353 kts | 167° |
| 2026-05-09 12:57 | 41.94776 | 17.22642 | 16690 ft | 334 kts | 182° |
| 2026-05-09 12:58 | 41.92498 | 17.22738 | 16611 ft | 321 kts | 182° |
| 2026-05-09 12:58 | 41.90267 | 17.22828 | 16527 ft | 326 kts | 182° |
| 2026-05-09 12:58 | 41.87894 | 17.22905 | 16279 ft | 353 kts | 182° |
| 2026-05-09 12:58 | 41.85406 | 17.22987 | 16032 ft | 360 kts | 182° |
| 2026-05-09 12:59 | 41.82898 | 17.23072 | 15783 ft | 361 kts | 182° |
| 2026-05-09 12:59 | 41.80394 | 17.23156 | 15540 ft | 358 kts | 182° |
| 2026-05-09 12:59 | 41.77934 | 17.23246 | 15297 ft | 349 kts | 182° |
| 2026-05-09 12:59 | 41.75535 | 17.23336 | 15054 ft | 342 kts | 182° |
| 2026-05-09 13:00 | 41.73164 | 17.23418 | 14814 ft | 339 kts | 182° |
| 2026-05-09 13:00 | 41.70810 | 17.23496 | 14580 ft | 338 kts | 182° |
| 2026-05-09 13:00 | 41.68496 | 17.23575 | 14343 ft | 336 kts | 182° |
| 2026-05-09 13:00 | 41.66152 | 17.23655 | 14045 ft | 330 kts | 182° |
| 2026-05-09 13:01 | 41.63901 | 17.23731 | 13647 ft | 327 kts | 182° |
| 2026-05-09 13:01 | 41.61608 | 17.23805 | 13245 ft | 323 kts | 182° |
| 2026-05-09 13:01 | 41.59402 | 17.23878 | 12866 ft | 320 kts | 182° |
| 2026-05-09 13:01 | 41.57189 | 17.23949 | 12486 ft | 316 kts | 181° |
| 2026-05-09 13:02 | 41.54999 | 17.24020 | 12106 ft | 313 kts | 181° |
| 2026-05-09 13:02 | 41.52829 | 17.24093 | 11733 ft | 311 kts | 181° |
| 2026-05-09 13:02 | 41.50679 | 17.24165 | 11363 ft | 308 kts | 181° |
| 2026-05-09 13:02 | 41.48547 | 17.24233 | 10997 ft | 305 kts | 181° |
| 2026-05-09 13:03 | 41.46428 | 17.24298 | 10629 ft | 303 kts | 181° |
| 2026-05-09 13:03 | 41.44348 | 17.24368 | 10460 ft | 294 kts | 181° |
| 2026-05-09 13:03 | 41.42343 | 17.24437 | 10344 ft | 283 kts | 181° |
| 2026-05-09 13:03 | 41.40412 | 17.24505 | 10198 ft | 274 kts | 181° |
| 2026-05-09 13:04 | 41.38542 | 17.24763 | 10035 ft | 267 kts | 168° |
| 2026-05-09 13:04 | 41.36763 | 17.25540 | 9711 ft | 270 kts | 161° |
| 2026-05-09 13:04 | 41.35003 | 17.26396 | 9347 ft | 269 kts | 161° |
| 2026-05-09 13:04 | 41.33246 | 17.27253 | 8999 ft | 269 kts | 161° |
| 2026-05-09 13:05 | 41.31492 | 17.28112 | 8623 ft | 269 kts | 161° |
| 2026-05-09 13:05 | 41.29695 | 17.28683 | 8257 ft | 265 kts | 184° |
| 2026-05-09 13:05 | 41.27981 | 17.28007 | 7909 ft | 256 kts | 218° |
| 2026-05-09 13:05 | 41.26848 | 17.26272 | 7562 ft | 247 kts | 249° |
| 2026-05-09 13:06 | 41.26238 | 17.24137 | 7222 ft | 248 kts | 252° |
| 2026-05-09 13:06 | 41.25647 | 17.21990 | 6879 ft | 247 kts | 252° |
| 2026-05-09 13:06 | 41.25213 | 17.20422 | 6627 ft | 247 kts | 252° |
| 2026-05-09 13:06 | 41.24617 | 17.18281 | 6285 ft | 247 kts | 252° |
| 2026-05-09 13:07 | 41.24022 | 17.16149 | 5971 ft | 246 kts | 252° |
| 2026-05-09 13:07 | 41.23431 | 17.14025 | 5659 ft | 245 kts | 252° |
| 2026-05-09 13:07 | 41.22840 | 17.11907 | 5353 ft | 244 kts | 252° |
| 2026-05-09 13:07 | 41.22252 | 17.09797 | 5040 ft | 243 kts | 252° |
| 2026-05-09 13:08 | 41.21664 | 17.07693 | 4727 ft | 242 kts | 252° |
| 2026-05-09 13:08 | 41.21104 | 17.05591 | 4409 ft | 241 kts | 254° |
| 2026-05-09 13:08 | 41.20594 | 17.03467 | 4042 ft | 240 kts | 255° |
| 2026-05-09 13:08 | 41.20105 | 17.01358 | 3731 ft | 238 kts | 255° |
| 2026-05-09 13:09 | 41.19620 | 16.99260 | 3429 ft | 236 kts | 255° |
| 2026-05-09 13:09 | 41.19140 | 16.97189 | 3147 ft | 232 kts | 255° |
| 2026-05-09 13:09 | 41.18669 | 16.95164 | 2832 ft | 227 kts | 255° |
| 2026-05-09 13:09 | 41.18206 | 16.93186 | 2538 ft | 222 kts | 255° |
| 2026-05-09 13:10 | 41.17748 | 16.91250 | 2262 ft | 218 kts | 255° |
| 2026-05-09 13:10 | 41.17291 | 16.89365 | 2000 ft | 211 kts | 255° |
| 2026-05-09 13:10 | 41.16850 | 16.87568 | 1723 ft | 197 kts | 256° |
| 2026-05-09 13:10 | 41.16438 | 16.85902 | 1451 ft | 183 kts | 256° |
| 2026-05-09 13:11 | 41.16054 | 16.84350 | 1239 ft | 170 kts | 255° |
| 2026-05-09 13:11 | 41.15700 | 16.82917 | 985 ft | 159 kts | 257° |
| 2026-05-09 13:11 | 41.15349 | 16.81565 | 717 ft | 152 kts | 254° |
| 2026-05-09 13:11 | 41.14997 | 16.80240 | 514 ft | 152 kts | 253° |
| 2026-05-09 13:12 | 41.14647 | 16.78930 | 379 ft | 150 kts | 251° |
| 2026-05-09 13:12 | 41.14286 | 16.77633 | 217 ft | 151 kts | 254° |
| 2026-05-09 13:12 | 41.13941 | 16.76364 | 126 ft | 128 kts | 250° |
| 2026-05-09 13:12 | 41.13733 | 16.75636 | 140 ft | 44 kts | 249° |
| 2026-05-09 13:13 | 41.13629 | 16.75273 | 140 ft | 41 kts | 249° |
| 2026-05-09 13:13 | 41.13533 | 16.74926 | 138 ft | 39 kts | 250° |
| 2026-05-09 13:13 | 41.13428 | 16.74740 | 143 ft | 20 kts | 172° |
| 2026-05-09 13:13 | 41.13353 | 16.74864 | 147 ft | 14 kts | 116° |
| 2026-05-09 13:14 | 41.13361 | 16.74991 | 147 ft | 15 kts | 69° |
| 2026-05-09 13:14 | 41.13399 | 16.75122 | 147 ft | 16 kts | 69° |
| 2026-05-09 13:16 | 41.13587 | 16.76287 | 136 ft | 14 kts | 69° |
| 2026-05-09 13:16 | 41.13605 | 16.76349 | 136 ft | 3 kts | 73° |
| 2026-05-09 13:16 | 41.13594 | 16.76370 | 136 ft | 3 kts | 141° |
| 2026-05-09 13:16 | 41.13571 | 16.76385 | 136 ft | 4 kts | 156° |
| 2026-05-09 13:17 | 41.13545 | 16.76399 | 136 ft | 1 kts | 159° |
| 2026-05-09 13:17 | 41.13544 | 16.76399 | 136 ft | 0 kts | 159° |